Time;durP1;ratioP1;P1;durP2;ratioP2;P2;SDS_P1;SDS_P2;PMS_P1;PMS_P2;Temp;Humidity;BMP_temperature;BMP_pressure;BME280_temperature;BME280_humidity;BME280_pressure;Samples;Min_cycle;Max_cycle;Signal;HPM_P1;HPM_P2
2021/09/23 00:00:04;;;;;;;19.00;10.50;;;;;;;;;;5133540;27;20019;-61
2021/09/23 00:05:23;;;;;;;17.95;10.82;;;;;;;;;;5048796;28;20503;-60
2021/09/23 00:07:50;;;;;;;18.88;11.18;;;;;;;;;;5033050;28;20044;-60
2021/09/23 00:10:22;;;;;;;16.70;10.55;;;;;;;;;;5032983;28;20026;-60
2021/09/23 00:12:48;;;;;;;21.48;10.95;;;;;;;;;;5032925;28;20057;-60
2021/09/23 00:15:15;;;;;;;19.27;10.80;;;;;;;;;;5032864;28;20093;-60
2021/09/23 00:17:47;;;;;;;26.58;11.60;;;;;;;;;;5032731;28;20075;-61
2021/09/23 00:20:17;;;;;;;25.98;11.00;;;;;;;;;;5032920;28;20029;-60
2021/09/23 00:22:43;;;;;;;22.13;11.48;;;;;;;;;;5032667;28;20038;-60
2021/09/23 00:25:09;;;;;;;29.05;11.93;;;;;;;;;;5032885;28;20030;-59
2021/09/23 00:27:35;;;;;;;18.67;11.82;;;;;;;;;;5032587;28;20086;-61
2021/09/23 00:30:01;;;;;;;29.70;11.93;;;;;;;;;;5040889;27;20100;-60
2021/09/23 00:32:27;;;;;;;32.75;11.93;;;;;;;;;;5102882;27;20499;-59
2021/09/23 00:34:53;;;;;;;66.50;13.73;;;;;;;;;;5101375;28;20033;-59
2021/09/23 00:37:19;;;;;;;39.95;14.88;;;;;;;;;;5032498;28;20033;-61
2021/09/23 00:39:45;;;;;;;30.67;14.82;;;;;;;;;;5037430;27;20032;-60
2021/09/23 00:42:11;;;;;;;71.05;15.35;;;;;;;;;;5137390;27;20408;-59
2021/09/23 00:44:38;;;;;;;26.35;13.10;;;;;;;;;;5137048;27;20023;-59
2021/09/23 00:47:04;;;;;;;25.40;14.55;;;;;;;;;;5136712;27;20122;-60
2021/09/23 00:49:30;;;;;;;32.00;14.82;;;;;;;;;;5136937;27;20096;-62
2021/09/23 00:51:56;;;;;;;30.50;14.55;;;;;;;;;;5136593;27;20354;-60
2021/09/23 00:54:22;;;;;;;30.48;15.32;;;;;;;;;;5136701;27;20023;-59
2021/09/23 00:56:48;;;;;;;30.75;15.10;;;;;;;;;;5136708;27;20031;-59
2021/09/23 00:59:14;;;;;;;29.63;14.88;;;;;;;;;;5136559;27;20027;-59
2021/09/23 01:01:45;;;;;;;34.75;15.32;;;;;;;;;;5136431;27;20019;-59
2021/09/23 01:04:11;;;;;;;31.23;15.18;;;;;;;;;;5109789;27;20029;-59
2021/09/23 01:06:37;;;;;;;30.23;16.85;;;;;;;;;;5032358;28;20030;-62
2021/09/23 01:09:03;;;;;;;30.45;16.15;;;;;;;;;;5032251;28;20079;-61
2021/09/23 01:11:30;;;;;;;28.38;16.40;;;;;;;;;;5031639;28;20469;-60
2021/09/23 01:13:56;;;;;;;31.50;16.85;;;;;;;;;;5031340;28;20065;-61
2021/09/23 01:16:22;;;;;;;28.45;16.90;;;;;;;;;;5031998;28;20090;-61
2021/09/23 01:18:48;;;;;;;33.60;17.02;;;;;;;;;;5031860;28;20465;-65
2021/09/23 01:21:14;;;;;;;35.90;17.73;;;;;;;;;;5031686;28;20046;-60
2021/09/23 01:23:42;;;;;;;29.77;17.90;;;;;;;;;;5031793;28;20025;-61
2021/09/23 01:26:08;;;;;;;27.77;17.00;;;;;;;;;;5100446;28;20381;-61
2021/09/23 01:28:34;;;;;;;31.17;17.42;;;;;;;;;;5031735;28;20033;-61
2021/09/23 01:31:01;;;;;;;28.45;17.70;;;;;;;;;;5031742;28;20389;-61
2021/09/23 01:33:28;;;;;;;31.00;17.88;;;;;;;;;;5030480;28;20374;-60
2021/09/23 01:35:54;;;;;;;28.98;17.48;;;;;;;;;;5099995;28;20037;-61
2021/09/23 01:38:20;;;;;;;30.15;18.50;;;;;;;;;;5031490;28;20030;-60
2021/09/23 01:40:46;;;;;;;27.90;17.42;;;;;;;;;;5117434;27;20110;-61
2021/09/23 01:43:12;;;;;;;34.95;19.00;;;;;;;;;;5135886;27;20574;-61
2021/09/23 01:45:38;;;;;;;35.47;18.17;;;;;;;;;;5117168;27;20114;-60
2021/09/23 01:48:04;;;;;;;32.53;18.23;;;;;;;;;;5135601;27;20410;-60
2021/09/23 01:50:30;;;;;;;37.03;18.25;;;;;;;;;;5135781;27;20026;-61
2021/09/23 01:52:56;;;;;;;29.10;18.52;;;;;;;;;;5135613;27;20019;-60
2021/09/23 01:55:22;;;;;;;32.40;18.65;;;;;;;;;;5135601;27;20465;-62
2021/09/23 01:57:48;;;;;;;31.10;17.65;;;;;;;;;;5135541;27;20022;-59
2021/09/23 02:00:24;;;;;;;34.78;18.35;;;;;;;;;;5117160;27;20079;-67
2021/09/23 02:02:51;;;;;;;31.98;17.95;;;;;;;;;;5096631;27;20026;-60
2021/09/23 02:05:17;;;;;;;27.95;18.20;;;;;;;;;;5030974;28;20022;-61
2021/09/23 02:07:43;;;;;;;28.08;17.95;;;;;;;;;;5030904;28;20041;-60
2021/09/23 02:10:10;;;;;;;31.23;18.60;;;;;;;;;;5030884;28;20053;-60
2021/09/23 02:12:35;;;;;;;27.00;17.35;;;;;;;;;;5099523;28;20060;-62
2021/09/23 02:15:02;;;;;;;33.10;18.75;;;;;;;;;;5030735;28;20061;-61
2021/09/23 02:17:29;;;;;;;27.60;17.15;;;;;;;;;;5030533;28;20376;-61
2021/09/23 02:19:55;;;;;;;28.20;18.58;;;;;;;;;;5029253;28;20037;-61
2021/09/23 02:22:21;;;;;;;33.10;17.83;;;;;;;;;;5030655;28;20121;-61
2021/09/23 02:24:47;;;;;;;28.05;17.42;;;;;;;;;;5030365;28;20456;-61
2021/09/23 02:27:13;;;;;;;23.80;16.58;;;;;;;;;;5030583;28;20052;-60
2021/09/23 02:29:40;;;;;;;34.83;17.63;;;;;;;;;;5030549;28;20132;-61
2021/09/23 02:32:07;;;;;;;24.95;16.63;;;;;;;;;;5128367;27;20027;-60
2021/09/23 02:34:34;;;;;;;26.17;16.33;;;;;;;;;;5134504;27;20110;-61
2021/09/23 02:37:00;;;;;;;24.77;16.25;;;;;;;;;;5134805;27;20095;-61
2021/09/23 02:39:26;;;;;;;24.40;16.38;;;;;;;;;;5134474;27;20459;-61
2021/09/23 02:41:52;;;;;;;24.83;16.00;;;;;;;;;;5134988;27;20027;-66
2021/09/23 02:44:18;;;;;;;26.33;16.70;;;;;;;;;;5132222;27;20360;-61
2021/09/23 02:46:44;;;;;;;24.27;16.15;;;;;;;;;;5029857;28;20143;-62
2021/09/23 02:49:10;;;;;;;38.28;16.63;;;;;;;;;;5030552;28;20510;-64
2021/09/23 02:51:36;;;;;;;22.95;15.70;;;;;;;;;;5089922;27;20019;-60
2021/09/23 02:54:02;;;;;;;23.92;15.13;;;;;;;;;;5134068;27;20431;-63
2021/09/23 02:56:28;;;;;;;23.63;15.40;;;;;;;;;;5134002;27;20416;-60
2021/09/23 02:58:55;;;;;;;26.55;15.52;;;;;;;;;;5133979;27;20070;-63
2021/09/23 03:01:21;;;;;;;29.35;15.50;;;;;;;;;;5133930;27;20015;-60
2021/09/23 03:03:47;;;;;;;20.45;14.05;;;;;;;;;;5115371;27;20027;-61
2021/09/23 03:06:13;;;;;;;25.45;15.20;;;;;;;;;;5118961;27;20030;-66
2021/09/23 03:08:39;;;;;;;23.05;15.13;;;;;;;;;;5010244;28;20041;-62
2021/09/23 03:11:06;;;;;;;21.38;14.25;;;;;;;;;;5010274;28;20033;-61
2021/09/23 03:13:32;;;;;;;21.92;14.32;;;;;;;;;;5010412;28;20489;-60
2021/09/23 03:15:58;;;;;;;22.23;14.45;;;;;;;;;;5026408;28;20026;-60
2021/09/23 03:18:24;;;;;;;28.20;14.43;;;;;;;;;;5029814;28;20433;-60
2021/09/23 03:20:50;;;;;;;24.38;14.05;;;;;;;;;;5029595;28;20128;-60
2021/09/23 03:23:17;;;;;;;19.63;12.98;;;;;;;;;;5029903;28;20140;-61
2021/09/23 03:25:43;;;;;;;21.63;13.77;;;;;;;;;;5009758;28;20049;-62
2021/09/23 03:28:09;;;;;;;23.45;14.52;;;;;;;;;;5009981;28;20068;-61
2021/09/23 03:30:35;;;;;;;23.58;13.70;;;;;;;;;;5048462;27;20030;-65
2021/09/23 03:33:02;;;;;;;19.92;13.38;;;;;;;;;;5133539;27;20112;-60
2021/09/23 03:35:28;;;;;;;22.52;13.95;;;;;;;;;;5132722;27;20028;-60
2021/09/23 03:37:54;;;;;;;21.52;12.80;;;;;;;;;;5133689;27;20038;-60
2021/09/23 03:40:20;;;;;;;33.78;13.77;;;;;;;;;;5133459;27;20027;-60
2021/09/23 03:42:46;;;;;;;21.60;12.68;;;;;;;;;;5133396;27;20019;-61
2021/09/23 03:45:12;;;;;;;19.63;12.70;;;;;;;;;;5133194;28;20116;-60
2021/09/23 03:47:38;;;;;;;26.48;13.98;;;;;;;;;;5133666;28;20035;-60
2021/09/23 03:50:05;;;;;;;21.65;12.75;;;;;;;;;;5114951;28;20027;-60
2021/09/23 03:52:31;;;;;;;20.20;12.93;;;;;;;;;;5133147;28;20030;-60
2021/09/23 03:54:57;;;;;;;20.95;12.77;;;;;;;;;;5133369;28;20027;-60
2021/09/23 03:57:23;;;;;;;19.10;12.05;;;;;;;;;;5115438;28;20034;-62
2021/09/23 03:59:49;;;;;;;16.23;12.20;;;;;;;;;;5009593;28;20022;-64
2021/09/23 04:02:15;;;;;;;22.50;12.57;;;;;;;;;;5009604;28;20095;-60
2021/09/23 04:04:41;;;;;;;21.15;12.35;;;;;;;;;;5009524;28;20026;-60
2021/09/23 04:07:07;;;;;;;19.65;11.88;;;;;;;;;;5009676;28;20552;-60
2021/09/23 04:09:33;;;;;;;27.77;12.32;;;;;;;;;;5009370;28;20412;-60
2021/09/23 04:11:59;;;;;;;18.75;11.00;;;;;;;;;;5009736;28;20485;-63
2021/09/23 04:14:25;;;;;;;16.15;11.50;;;;;;;;;;5013016;28;20096;-61
2021/09/23 04:16:51;;;;;;;21.92;11.82;;;;;;;;;;5029003;28;20078;-59
2021/09/23 04:19:20;;;;;;;20.45;11.82;;;;;;;;;;5029195;28;20544;-60
2021/09/23 04:21:46;;;;;;;22.70;11.23;;;;;;;;;;5028547;28;20084;-60
2021/09/23 04:24:12;;;;;;;15.82;10.30;;;;;;;;;;5097171;28;20429;-60
2021/09/23 04:26:38;;;;;;;16.30;10.60;;;;;;;;;;5017391;28;20041;-60
2021/09/23 04:29:04;;;;;;;20.50;11.20;;;;;;;;;;5076943;28;20026;-65
2021/09/23 04:31:30;;;;;;;22.55;10.45;;;;;;;;;;5094933;28;20097;-60
2021/09/23 04:33:56;;;;;;;28.83;10.27;;;;;;;;;;5132897;28;20040;-60
2021/09/23 04:36:22;;;;;;;14.85;9.98;;;;;;;;;;5132649;28;20031;-62
2021/09/23 04:38:48;;;;;;;15.90;9.75;;;;;;;;;;5133096;28;20019;-60
2021/09/23 04:41:14;;;;;;;18.30;9.65;;;;;;;;;;5132967;28;20023;-60
2021/09/23 04:43:41;;;;;;;16.65;9.45;;;;;;;;;;5133196;28;20118;-59
2021/09/23 04:46:07;;;;;;;24.77;9.35;;;;;;;;;;5132827;27;20057;-60
2021/09/23 04:48:33;;;;;;;23.08;8.63;;;;;;;;;;5136512;27;20495;-60
2021/09/23 04:51:00;;;;;;;20.75;8.65;;;;;;;;;;5136476;27;20023;-63
2021/09/23 04:53:25;;;;;;;22.42;9.38;;;;;;;;;;5136746;27;20370;-59
2021/09/23 04:55:51;;;;;;;34.17;8.82;;;;;;;;;;5136629;27;20030;-60
2021/09/23 04:58:17;;;;;;;19.00;8.13;;;;;;;;;;5086009;27;20048;-60
2021/09/23 05:00:44;;;;;;;23.73;8.63;;;;;;;;;;5031744;28;20032;-60
2021/09/23 05:03:18;;;;;;;31.85;8.10;;;;;;;;;;5031823;28;20537;-60
2021/09/23 05:05:44;;;;;;;22.75;7.97;;;;;;;;;;5101079;28;20022;-60
2021/09/23 05:08:10;;;;;;;24.40;7.40;;;;;;;;;;5032556;28;20029;-60
2021/09/23 05:10:36;;;;;;;25.58;8.20;;;;;;;;;;5032341;28;20097;-61
2021/09/23 05:13:03;;;;;;;24.55;6.55;;;;;;;;;;5031765;28;20033;-60
2021/09/23 05:15:29;;;;;;;20.05;6.70;;;;;;;;;;5087137;28;20030;-60
2021/09/23 05:17:55;;;;;;;28.30;6.60;;;;;;;;;;5011707;28;20082;-60
2021/09/23 05:20:21;;;;;;;24.52;6.20;;;;;;;;;;5011860;28;20106;-60
2021/09/23 05:22:47;;;;;;;27.33;6.70;;;;;;;;;;5011506;28;20045;-60
2021/09/23 05:25:13;;;;;;;33.10;7.07;;;;;;;;;;5079898;28;20046;-61
2021/09/23 05:27:40;;;;;;;26.02;6.38;;;;;;;;;;5011621;28;20034;-60
2021/09/23 05:30:07;;;;;;;21.92;5.78;;;;;;;;;;5025103;27;20049;-61
2021/09/23 05:32:33;;;;;;;21.30;6.53;;;;;;;;;;5099893;27;20030;-60
2021/09/23 05:34:59;;;;;;;14.73;5.10;;;;;;;;;;5011500;28;20018;-60
2021/09/23 05:37:25;;;;;;;22.40;5.45;;;;;;;;;;5011853;28;20034;-61
2021/09/23 05:39:51;;;;;;;30.02;5.55;;;;;;;;;;5021463;27;20113;-60
2021/09/23 05:42:17;;;;;;;27.95;5.68;;;;;;;;;;5135449;27;20023;-60
2021/09/23 05:44:43;;;;;;;27.58;5.30;;;;;;;;;;5127327;27;20095;-63
2021/09/23 05:47:08;;;;;;;29.77;5.00;;;;;;;;;;5031371;28;20033;-61
2021/09/23 05:49:35;;;;;;;23.40;5.25;;;;;;;;;;5031159;28;20436;-60
2021/09/23 05:52:01;;;;;;;27.17;5.25;;;;;;;;;;5108795;27;20102;-59
2021/09/23 05:54:27;;;;;;;24.55;5.13;;;;;;;;;;5135215;27;20132;-60
2021/09/23 05:56:58;;;;;;;14.25;4.50;;;;;;;;;;5118665;27;20033;-64
2021/09/23 05:59:32;;;;;;;14.95;5.07;;;;;;;;;;5085722;28;20698;-59
2021/09/23 06:02:26;;;;;;;10.52;3.88;;;;;;;;;;5050065;27;20071;-60
2021/09/23 06:05:05;;;;;;;14.77;4.22;;;;;;;;;;5010324;28;20026;-60
2021/09/23 06:07:36;;;;;;;15.32;4.60;;;;;;;;;;5009904;28;20038;-60
2021/09/23 06:10:03;;;;;;;15.80;4.38;;;;;;;;;;5044785;27;20112;-60
2021/09/23 06:12:33;;;;;;;8.35;3.75;;;;;;;;;;5090437;27;20054;-62
2021/09/23 06:14:59;;;;;;;18.80;4.65;;;;;;;;;;5090079;27;20015;-60
2021/09/23 06:17:25;;;;;;;59.55;5.03;;;;;;;;;;5082355;27;20023;-59
2021/09/23 06:19:51;;;;;;;28.27;4.03;;;;;;;;;;5064268;27;20378;-60
2021/09/23 06:22:17;;;;;;;41.53;4.07;;;;;;;;;;5087439;27;20045;-62
2021/09/23 06:24:44;;;;;;;23.40;4.32;;;;;;;;;;5096576;28;20017;-61
2021/09/23 06:27:10;;;;;;;44.33;4.72;;;;;;;;;;5097823;28;20041;-59
2021/09/23 06:29:36;;;;;;;17.80;3.88;;;;;;;;;;5098890;27;20067;-63
2021/09/23 06:32:03;;;;;;;18.60;4.68;;;;;;;;;;5062844;27;20090;-60
2021/09/23 06:34:29;;;;;;;16.23;4.25;;;;;;;;;;5097916;28;20038;-60
2021/09/23 06:36:55;;;;;;;11.13;4.10;;;;;;;;;;5030160;28;20104;-62
2021/09/23 06:39:21;;;;;;;13.75;4.20;;;;;;;;;;5029873;28;20017;-60
2021/09/23 06:41:47;;;;;;;17.63;4.45;;;;;;;;;;5122742;27;20023;-60
2021/09/23 06:44:13;;;;;;;15.73;4.35;;;;;;;;;;5116657;27;20019;-59
2021/09/23 06:46:39;;;;;;;18.70;4.63;;;;;;;;;;5135034;27;20423;-61
2021/09/23 06:49:05;;;;;;;19.80;5.20;;;;;;;;;;5034358;27;20485;-60
2021/09/23 06:51:32;;;;;;;12.45;4.57;;;;;;;;;;5077239;27;20023;-60
2021/09/23 06:53:58;;;;;;;23.10;4.57;;;;;;;;;;5115326;27;20443;-61
2021/09/23 06:56:25;;;;;;;11.48;4.55;;;;;;;;;;5133832;27;20034;-61
2021/09/23 06:58:51;;;;;;;14.00;5.45;;;;;;;;;;5133656;27;20035;-60
2021/09/23 07:01:17;;;;;;;15.07;4.55;;;;;;;;;;5133531;27;20027;-60
2021/09/23 07:03:43;;;;;;;14.27;4.72;;;;;;;;;;5133629;27;20019;-60
2021/09/23 07:06:09;;;;;;;15.55;4.88;;;;;;;;;;5114961;27;20015;-62
2021/09/23 07:08:35;;;;;;;13.75;4.85;;;;;;;;;;5133455;27;20484;-59
2021/09/23 07:11:02;;;;;;;19.48;5.38;;;;;;;;;;5132684;27;20027;-59
2021/09/23 07:13:30;;;;;;;16.90;4.60;;;;;;;;;;5097524;28;20512;-60
2021/09/23 07:15:56;;;;;;;16.83;4.60;;;;;;;;;;5029453;28;20029;-63
2021/09/23 07:18:22;;;;;;;14.73;5.22;;;;;;;;;;5097658;28;20041;-60
2021/09/23 07:20:48;;;;;;;11.20;4.25;;;;;;;;;;5029203;28;20397;-60
2021/09/23 07:23:14;;;;;;;17.75;4.32;;;;;;;;;;5029397;28;20033;-59
2021/09/23 07:25:40;;;;;;;11.65;4.10;;;;;;;;;;5044791;27;20019;-60
2021/09/23 07:28:06;;;;;;;7.93;3.80;;;;;;;;;;5043460;27;20037;-59
2021/09/23 07:30:33;;;;;;;15.90;3.60;;;;;;;;;;5029256;28;20025;-60
2021/09/23 07:32:59;;;;;;;12.55;4.20;;;;;;;;;;5029516;28;20029;-59
2021/09/23 07:35:25;;;;;;;12.23;4.30;;;;;;;;;;5029112;28;20059;-60
2021/09/23 07:37:51;;;;;;;7.68;3.78;;;;;;;;;;5029239;28;20025;-60
2021/09/23 07:40:17;;;;;;;8.23;3.40;;;;;;;;;;5055963;27;20031;-60
2021/09/23 07:42:43;;;;;;;7.28;2.78;;;;;;;;;;5131690;27;20023;-65
2021/09/23 07:45:09;;;;;;;5.70;3.13;;;;;;;;;;5035414;28;20639;-59
2021/09/23 07:47:35;;;;;;;9.05;3.30;;;;;;;;;;5058356;28;20048;-59
2021/09/23 07:50:01;;;;;;;7.88;3.20;;;;;;;;;;5008575;28;20022;-60
2021/09/23 07:52:27;;;;;;;9.00;2.80;;;;;;;;;;5061323;28;20040;-59
2021/09/23 07:54:55;;;;;;;12.35;3.75;;;;;;;;;;5043619;28;20023;-63
2021/09/23 07:57:21;;;;;;;8.18;2.80;;;;;;;;;;5018745;28;20037;-66
2021/09/23 07:59:47;;;;;;;10.70;2.92;;;;;;;;;;5039876;28;20024;-62
2021/09/23 08:02:13;;;;;;;9.68;3.20;;;;;;;;;;5031820;28;20107;-60
2021/09/23 08:04:39;;;;;;;13.70;3.25;;;;;;;;;;5074469;28;20025;-64
2021/09/23 08:07:05;;;;;;;13.43;3.20;;;;;;;;;;5037088;28;20045;-62
2021/09/23 08:09:31;;;;;;;7.25;2.38;;;;;;;;;;5072998;28;20045;-60
2021/09/23 08:11:57;;;;;;;12.60;2.55;;;;;;;;;;5057859;28;20036;-60
2021/09/23 08:14:25;;;;;;;12.98;2.63;;;;;;;;;;5042955;28;20057;-62
2021/09/23 08:16:51;;;;;;;6.75;2.90;;;;;;;;;;5091606;28;20018;-62
2021/09/23 08:19:17;;;;;;;15.77;2.35;;;;;;;;;;5027828;28;20409;-66
2021/09/23 08:21:43;;;;;;;11.75;2.65;;;;;;;;;;5027440;28;20496;-66
2021/09/23 08:24:09;;;;;;;10.75;2.60;;;;;;;;;;5095302;27;20039;-65
2021/09/23 08:26:35;;;;;;;9.10;2.60;;;;;;;;;;5136471;27;20239;-62
2021/09/23 08:29:01;;;;;;;7.82;2.65;;;;;;;;;;5020917;27;20441;-63
2021/09/23 08:31:27;;;;;;;6.50;2.45;;;;;;;;;;5012758;28;20041;-65
2021/09/23 08:33:53;;;;;;;13.05;2.33;;;;;;;;;;5013519;28;20029;-63
2021/09/23 08:36:19;;;;;;;5.90;2.13;;;;;;;;;;5014949;28;20052;-65
2021/09/23 08:38:46;;;;;;;14.68;2.55;;;;;;;;;;5015068;28;20027;-66
2021/09/23 08:41:13;;;;;;;10.52;2.58;;;;;;;;;;5012499;28;20034;-65
2021/09/23 08:43:39;;;;;;;8.20;2.35;;;;;;;;;;5020016;28;20239;-64
2021/09/23 08:46:05;;;;;;;7.25;2.03;;;;;;;;;;5020098;28;20034;-61
2021/09/23 08:48:32;;;;;;;9.18;2.08;;;;;;;;;;5022547;27;20573;-63
2021/09/23 08:50:58;;;;;;;7.05;2.13;;;;;;;;;;5015730;28;20033;-63
2021/09/23 08:53:26;;;;;;;8.52;2.35;;;;;;;;;;5099528;27;20469;-62
2021/09/23 08:55:52;;;;;;;6.63;2.20;;;;;;;;;;5038884;27;20473;-62
2021/09/23 08:58:18;;;;;;;4.00;2.08;;;;;;;;;;5098232;27;20033;-62
2021/09/23 09:01:02;;;;;;;7.70;1.90;;;;;;;;;;5017917;28;20022;-64
2021/09/23 09:03:32;;;;;;;6.05;2.03;;;;;;;;;;5029815;27;20032;-62
2021/09/23 09:05:58;;;;;;;11.75;2.50;;;;;;;;;;5027332;27;20037;-61
2021/09/23 09:08:28;;;;;;;8.15;2.08;;;;;;;;;;5033897;27;20038;-61
2021/09/23 09:10:54;;;;;;;10.38;2.30;;;;;;;;;;5029033;28;20047;-61
2021/09/23 09:13:21;;;;;;;8.45;2.38;;;;;;;;;;5036324;27;20037;-61
2021/09/23 09:15:46;;;;;;;12.55;2.67;;;;;;;;;;5051554;27;20036;-60
2021/09/23 09:18:12;;;;;;;6.65;1.98;;;;;;;;;;5051935;27;20018;-65
2021/09/23 09:20:52;;;;;;;13.30;2.10;;;;;;;;;;5058178;27;20080;-60
2021/09/23 09:23:18;;;;;;;10.57;2.05;;;;;;;;;;5054081;27;20038;-62
2021/09/23 09:25:44;;;;;;;8.95;2.25;;;;;;;;;;5072531;27;20569;-65
2021/09/23 09:28:10;;;;;;;12.13;2.33;;;;;;;;;;5054234;27;20555;-64
2021/09/23 09:30:36;;;;;;;11.27;2.47;;;;;;;;;;5064770;27;20037;-64
2021/09/23 09:33:02;;;;;;;9.13;2.13;;;;;;;;;;5048251;27;20029;-66
2021/09/23 09:35:34;;;;;;;8.70;2.50;;;;;;;;;;5057316;27;20050;-62
2021/09/23 09:38:02;;;;;;;7.60;2.13;;;;;;;;;;5042314;27;20021;-61
2021/09/23 09:40:32;;;;;;;6.40;1.83;;;;;;;;;;5044226;27;20029;-62
2021/09/23 09:43:02;;;;;;;12.30;2.75;;;;;;;;;;5049074;27;20064;-61
2021/09/23 09:45:29;;;;;;;15.20;1.90;;;;;;;;;;5042640;27;20095;-69
2021/09/23 09:47:56;;;;;;;10.98;2.10;;;;;;;;;;5017949;28;20033;-67
2021/09/23 09:50:22;;;;;;;12.55;1.92;;;;;;;;;;5025609;27;20037;-63
2021/09/23 09:52:56;;;;;;;8.90;2.05;;;;;;;;;;5098547;27;20025;-66
2021/09/23 09:55:23;;;;;;;10.23;2.35;;;;;;;;;;5036510;27;20036;-62
2021/09/23 09:57:50;;;;;;;8.15;2.00;;;;;;;;;;5031394;27;20025;-65
2021/09/23 10:00:16;;;;;;;9.52;2.50;;;;;;;;;;5079311;28;20079;-61
2021/09/23 10:02:43;;;;;;;9.48;1.85;;;;;;;;;;5032649;28;20040;-64
2021/09/23 10:05:13;;;;;;;13.82;2.00;;;;;;;;;;5036407;27;20025;-63
2021/09/23 10:07:40;;;;;;;18.45;2.47;;;;;;;;;;5010932;28;20109;-63
2021/09/23 10:10:06;;;;;;;10.40;1.92;;;;;;;;;;5020317;28;20041;-61
2021/09/23 10:12:33;;;;;;;14.00;2.20;;;;;;;;;;5039188;27;20045;-63
2021/09/23 10:14:59;;;;;;;19.55;2.45;;;;;;;;;;5012004;28;20026;-62
2021/09/23 10:17:30;;;;;;;17.63;2.15;;;;;;;;;;5009988;28;20827;-60
2021/09/23 10:20:01;;;;;;;12.60;1.90;;;;;;;;;;5018233;28;20029;-61
2021/09/23 10:22:28;;;;;;;12.40;2.28;;;;;;;;;;5098204;28;20121;-62
2021/09/23 10:24:54;;;;;;;18.08;1.90;;;;;;;;;;5027096;28;20062;-62
2021/09/23 10:30:07;;;;;;;10.00;2.17;;;;;;;;;;5045310;27;20044;-60
2021/09/23 10:32:33;;;;;;;6.50;1.80;;;;;;;;;;5010566;28;20034;-62
2021/09/23 10:35:01;;;;;;;8.43;2.15;;;;;;;;;;5077112;28;20030;-62
2021/09/23 10:37:27;;;;;;;9.90;1.95;;;;;;;;;;5080248;27;20026;-62
2021/09/23 10:39:53;;;;;;;9.25;2.15;;;;;;;;;;5045879;27;20029;-61
2021/09/23 10:42:20;;;;;;;7.30;1.90;;;;;;;;;;5072972;27;20471;-61
2021/09/23 10:44:51;;;;;;;6.78;2.05;;;;;;;;;;5094981;28;20425;-61
2021/09/23 10:47:24;;;;;;;5.07;2.10;;;;;;;;;;5031409;28;20116;-62
2021/09/23 10:49:52;;;;;;;9.25;2.20;;;;;;;;;;5019815;28;20022;-60
2021/09/23 10:52:19;;;;;;;5.75;2.50;;;;;;;;;;5043643;27;20041;-61
2021/09/23 10:54:45;;;;;;;12.48;4.18;;;;;;;;;;5010038;28;20029;-62
2021/09/23 10:57:12;;;;;;;14.00;8.13;;;;;;;;;;5085931;28;20025;-62
2021/09/23 10:59:39;;;;;;;10.88;6.57;;;;;;;;;;5029747;28;20532;-60
2021/09/23 11:02:22;;;;;;;12.23;7.32;;;;;;;;;;5029866;28;20052;-61
2021/09/23 11:04:55;;;;;;;15.80;7.97;;;;;;;;;;5091337;28;20121;-60
2021/09/23 11:07:22;;;;;;;19.80;10.98;;;;;;;;;;5034534;27;20044;-61
2021/09/23 11:10:05;;;;;;;16.15;9.77;;;;;;;;;;5028316;28;20468;-61
2021/09/23 11:12:32;;;;;;;22.08;11.70;;;;;;;;;;5026040;28;20098;-61
2021/09/23 11:14:58;;;;;;;15.65;9.77;;;;;;;;;;5039158;27;20509;-63
2021/09/23 11:17:25;;;;;;;23.35;12.35;;;;;;;;;;5019541;28;20057;-63
2021/09/23 11:19:56;;;;;;;15.70;10.65;;;;;;;;;;5054236;27;20067;-61
2021/09/23 11:22:32;;;;;;;17.50;10.98;;;;;;;;;;5045572;27;20486;-62
2021/09/23 11:25:00;;;;;;;18.08;10.50;;;;;;;;;;5039020;27;20096;-65
2021/09/23 11:27:27;;;;;;;14.30;9.27;;;;;;;;;;5045098;27;20068;-65
2021/09/23 11:29:53;;;;;;;20.92;9.77;;;;;;;;;;5054595;27;20025;-61
2021/09/23 11:32:20;;;;;;;14.90;9.07;;;;;;;;;;5046150;27;20056;-61
2021/09/23 11:34:55;;;;;;;16.58;9.13;;;;;;;;;;5085749;27;20092;-64
2021/09/23 11:37:27;;;;;;;25.73;8.00;;;;;;;;;;5016908;27;20030;-62
2021/09/23 11:39:57;;;;;;;24.77;6.97;;;;;;;;;;5090820;28;20446;-62
2021/09/23 11:42:24;;;;;;;16.45;4.50;;;;;;;;;;5095710;27;20057;-62
2021/09/23 11:44:51;;;;;;;21.95;3.63;;;;;;;;;;5095760;28;20027;-64
2021/09/23 11:47:19;;;;;;;16.90;2.65;;;;;;;;;;5034259;28;20077;-62
2021/09/23 11:49:49;;;;;;;9.70;2.92;;;;;;;;;;5029662;28;20597;-61
2021/09/23 11:52:15;;;;;;;7.80;2.13;;;;;;;;;;5048283;28;20071;-63
2021/09/23 11:54:41;;;;;;;8.45;2.80;;;;;;;;;;5047920;28;20105;-63
2021/09/23 11:57:07;;;;;;;10.93;2.42;;;;;;;;;;5082110;27;20102;-63
2021/09/23 11:59:33;;;;;;;16.65;2.70;;;;;;;;;;5036163;27;20037;-61
2021/09/23 12:02:00;;;;;;;6.10;2.40;;;;;;;;;;5015230;28;20023;-61
2021/09/23 12:04:26;;;;;;;9.82;2.50;;;;;;;;;;5012555;28;20034;-61
2021/09/23 12:07:05;;;;;;;10.10;2.53;;;;;;;;;;5066880;27;20037;-62
2021/09/23 12:09:33;;;;;;;9.18;1.83;;;;;;;;;;5123255;27;20023;-63
2021/09/23 12:11:59;;;;;;;10.98;2.08;;;;;;;;;;5028242;27;20033;-62
2021/09/23 12:14:25;;;;;;;11.35;1.83;;;;;;;;;;5060937;27;20019;-66
2021/09/23 12:17:02;;;;;;;10.00;2.05;;;;;;;;;;5042633;27;20033;-65
2021/09/23 12:19:28;;;;;;;5.55;1.63;;;;;;;;;;5085282;28;20030;-64
2021/09/23 12:21:54;;;;;;;17.33;3.08;;;;;;;;;;5027796;28;20053;-64
2021/09/23 12:24:34;;;;;;;8.27;2.08;;;;;;;;;;5030682;27;20094;-65
2021/09/23 12:27:00;;;;;;;7.85;2.40;;;;;;;;;;5050964;27;20082;-64
2021/09/23 12:29:26;;;;;;;14.48;2.22;;;;;;;;;;5080801;27;20495;-65
2021/09/23 12:32:04;;;;;;;13.55;2.35;;;;;;;;;;5042755;27;20053;-63
2021/09/23 12:34:31;;;;;;;9.20;2.10;;;;;;;;;;5035653;27;20120;-63
2021/09/23 12:37:04;;;;;;;11.73;1.83;;;;;;;;;;5031304;28;20057;-64
2021/09/23 12:39:42;;;;;;;9.15;2.15;;;;;;;;;;5028764;27;20068;-65
2021/09/23 12:42:10;;;;;;;10.48;1.75;;;;;;;;;;5039366;27;20078;-64
2021/09/23 12:44:38;;;;;;;11.95;2.25;;;;;;;;;;5055770;27;20927;-65
2021/09/23 12:47:04;;;;;;;15.55;2.30;;;;;;;;;;5032185;27;20348;-64
2021/09/23 12:49:31;;;;;;;13.73;1.73;;;;;;;;;;5135425;27;20432;-65
2021/09/23 12:52:09;;;;;;;14.18;1.85;;;;;;;;;;5091381;27;20038;-64
2021/09/23 12:54:35;;;;;;;7.60;1.90;;;;;;;;;;5012536;28;20026;-66
2021/09/23 12:57:05;;;;;;;11.63;1.77;;;;;;;;;;5042095;27;20031;-64
2021/09/23 12:59:32;;;;;;;9.02;1.40;;;;;;;;;;5031475;28;20017;-64
2021/09/23 13:02:08;;;;;;;9.38;1.55;;;;;;;;;;5032788;27;20022;-64
2021/09/23 13:04:34;;;;;;;10.48;1.50;;;;;;;;;;5011970;28;20528;-66
2021/09/23 13:07:15;;;;;;;13.95;1.67;;;;;;;;;;5020014;27;20042;-65
2021/09/23 13:09:41;;;;;;;8.27;1.48;;;;;;;;;;5042144;27;20059;-66
2021/09/23 13:12:13;;;;;;;10.38;1.88;;;;;;;;;;5034383;27;20061;-65
2021/09/23 13:14:45;;;;;;;8.88;1.40;;;;;;;;;;5050406;27;20015;-63
2021/09/23 13:17:24;;;;;;;11.07;1.73;;;;;;;;;;5029715;27;20090;-62
2021/09/23 13:19:50;;;;;;;2.67;1.25;;;;;;;;;;5073178;27;20026;-62
2021/09/23 13:22:16;;;;;;;11.73;1.83;;;;;;;;;;5026861;27;20054;-61
2021/09/23 13:24:42;;;;;;;6.75;1.65;;;;;;;;;;5051930;27;20075;-64
2021/09/23 13:27:08;;;;;;;10.25;1.73;;;;;;;;;;5026975;27;20038;-65
2021/09/23 13:29:34;;;;;;;9.18;1.60;;;;;;;;;;5026603;28;20048;-61
2021/09/23 13:32:00;;;;;;;6.20;1.40;;;;;;;;;;5025813;28;20093;-62
2021/09/23 13:34:26;;;;;;;12.10;1.67;;;;;;;;;;5037065;27;20298;-61
2021/09/23 13:36:52;;;;;;;15.18;1.85;;;;;;;;;;5052000;27;20458;-61
2021/09/23 13:39:18;;;;;;;9.15;1.98;;;;;;;;;;5047087;27;20030;-61
2021/09/23 13:41:44;;;;;;;4.68;1.83;;;;;;;;;;5053154;27;20051;-61
2021/09/23 13:44:10;;;;;;;12.60;2.03;;;;;;;;;;5028084;27;20077;-64
2021/09/23 13:46:36;;;;;;;3.80;1.25;;;;;;;;;;5026474;27;20029;-61
2021/09/23 13:49:02;;;;;;;10.18;1.60;;;;;;;;;;5085988;27;20452;-60
2021/09/23 13:51:29;;;;;;;7.07;1.63;;;;;;;;;;5073335;27;20025;-64
2021/09/23 13:53:55;;;;;;;11.82;1.58;;;;;;;;;;5050693;27;20034;-61
2021/09/23 13:56:23;;;;;;;8.57;1.50;;;;;;;;;;5040835;27;20026;-63
2021/09/23 13:58:49;;;;;;;8.45;1.90;;;;;;;;;;5021798;28;20041;-61
2021/09/23 14:01:15;;;;;;;7.78;1.73;;;;;;;;;;5012400;28;20060;-63
2021/09/23 14:03:41;;;;;;;11.80;1.50;;;;;;;;;;5010721;28;20353;-61
2021/09/23 14:06:07;;;;;;;11.60;2.10;;;;;;;;;;5012880;28;20037;-62
2021/09/23 14:08:33;;;;;;;7.93;1.55;;;;;;;;;;5092571;27;20088;-62
2021/09/23 14:10:59;;;;;;;11.35;1.85;;;;;;;;;;5080713;27;20389;-61
2021/09/23 14:13:26;;;;;;;13.10;2.47;;;;;;;;;;5038301;27;20108;-61
2021/09/23 14:15:52;;;;;;;11.82;2.08;;;;;;;;;;5022227;28;20033;-61
2021/09/23 14:18:19;;;;;;;9.15;1.77;;;;;;;;;;5090001;27;20026;-62
2021/09/23 14:20:44;;;;;;;6.05;1.77;;;;;;;;;;5046422;27;20042;-63
2021/09/23 14:23:11;;;;;;;6.90;1.85;;;;;;;;;;5045121;27;20054;-66
2021/09/23 14:25:37;;;;;;;6.13;1.60;;;;;;;;;;5065457;27;20041;-63
2021/09/23 14:28:05;;;;;;;12.95;2.13;;;;;;;;;;5108396;27;20144;-63
2021/09/23 14:30:31;;;;;;;6.15;2.00;;;;;;;;;;5031825;27;20023;-62
2021/09/23 14:32:57;;;;;;;5.07;1.63;;;;;;;;;;5110019;27;20031;-62